Time;durP1;ratioP1;P1;durP2;ratioP2;P2;SDS_P1;SDS_P2;PMS_P1;PMS_P2;Temp;Humidity;BMP_temperature;BMP_pressure;BME280_temperature;BME280_humidity;BME280_pressure;Samples;Min_cycle;Max_cycle;Signal;HPM_P1;HPM_P2
2022/07/24 00:02:01;;;;;;;5.30;3.15;;;;;;;20.65;62.28;100225.70;1735551;82;21047;-73
2022/07/24 00:04:30;;;;;;;5.30;3.33;;;;;;;20.63;62.29;100220.41;1730329;83;21063;-74
2022/07/24 00:07:04;;;;;;;5.83;3.77;;;;;;;20.62;62.38;100226.24;1727818;83;21035;-74
2022/07/24 00:09:35;;;;;;;4.87;3.33;;;;;;;20.56;62.61;100224.81;1722788;82;21496;-74
2022/07/24 00:12:06;;;;;;;6.83;3.45;;;;;;;20.51;62.91;100223.39;1713980;82;21558;-73
2022/07/24 00:14:37;;;;;;;5.50;3.42;;;;;;;20.46;63.06;100219.73;1691938;81;21068;-72
2022/07/24 00:17:07;;;;;;;4.75;3.47;;;;;;;20.44;63.17;100215.82;1680103;85;21000;-74
2022/07/24 00:19:38;;;;;;;3.80;3.27;;;;;;;20.44;63.23;100220.00;1669620;85;21035;-73
2022/07/24 00:22:08;;;;;;;5.62;3.58;;;;;;;20.45;63.26;100212.48;1680520;85;21111;-75
2022/07/24 00:24:38;;;;;;;7.20;3.00;;;;;;;20.46;63.25;100217.78;1670282;84;21067;-74
2022/07/24 00:27:08;;;;;;;5.05;3.37;;;;;;;20.44;63.29;100214.43;1680712;84;21455;-75
2022/07/24 00:29:38;;;;;;;4.58;3.20;;;;;;;20.45;63.37;100218.89;1680429;84;22178;-75
2022/07/24 00:32:08;;;;;;;5.12;2.90;;;;;;;20.46;63.24;100218.34;1680490;84;21052;-73
2022/07/24 00:34:38;;;;;;;4.72;3.08;;;;;;;20.43;63.23;100219.71;1680178;85;21023;-74
2022/07/24 00:37:09;;;;;;;4.10;3.10;;;;;;;20.40;63.33;100213.29;1679604;84;21471;-75
2022/07/24 00:39:41;;;;;;;4.67;3.10;;;;;;;20.39;63.54;100215.78;1669712;85;21005;-75
2022/07/24 00:42:12;;;;;;;4.17;3.15;;;;;;;20.38;63.69;100219.64;1680620;85;21043;-76
2022/07/24 00:44:42;;;;;;;3.33;3.02;;;;;;;20.35;63.83;100211.83;1669983;85;21103;-74
2022/07/24 00:47:13;;;;;;;5.03;3.20;;;;;;;20.31;63.92;100217.64;1680263;85;21171;-75
2022/07/24 00:49:45;;;;;;;3.30;3.00;;;;;;;20.28;63.91;100225.12;1680315;85;21052;-73
2022/07/24 00:52:16;;;;;;;4.47;3.08;;;;;;;20.29;64.00;100217.62;1680888;85;21044;-75
2022/07/24 00:54:46;;;;;;;4.62;3.35;;;;;;;20.28;64.04;100223.73;1669645;85;21044;-75
2022/07/24 00:57:17;;;;;;;5.50;3.83;;;;;;;20.24;64.15;100222.59;1680752;85;20989;-75
2022/07/24 00:59:48;;;;;;;4.60;3.12;;;;;;;20.25;64.15;100221.48;1669400;85;21055;-73
2022/07/24 01:02:18;;;;;;;4.83;3.20;;;;;;;20.25;64.14;100225.66;1680949;84;21453;-75
2022/07/24 01:04:48;;;;;;;5.67;3.67;;;;;;;20.22;64.21;100217.84;1680222;85;21605;-74
2022/07/24 01:07:19;;;;;;;5.95;3.50;;;;;;;20.17;64.47;100219.20;1679985;85;21059;-74
2022/07/24 01:09:50;;;;;;;4.58;3.58;;;;;;;20.13;64.74;100227.20;1679752;85;21008;-75
2022/07/24 01:12:19;;;;;;;5.47;3.50;;;;;;;20.13;64.89;100234.70;1668174;85;21088;-75
2022/07/24 01:14:51;;;;;;;6.08;3.40;;;;;;;20.11;64.84;100235.52;1691923;82;21122;-75
2022/07/24 01:17:21;;;;;;;4.62;3.00;;;;;;;20.10;64.75;100235.23;1714550;83;21043;-76
2022/07/24 01:19:51;;;;;;;6.45;3.05;;;;;;;20.05;64.75;100233.80;1717972;83;21071;-70
2022/07/24 01:22:21;;;;;;;4.17;3.35;;;;;;;19.99;65.07;100235.70;1719374;83;21062;-74
2022/07/24 01:24:51;;;;;;;5.60;3.12;;;;;;;19.95;65.30;100241.50;1711969;83;21035;-74
2022/07/24 01:27:23;;;;;;;6.42;3.20;;;;;;;19.94;65.36;100239.27;1712501;83;21007;-74
2022/07/24 01:29:53;;;;;;;4.60;3.52;;;;;;;19.92;65.44;100236.46;1718031;83;21055;-74
2022/07/24 01:32:24;;;;;;;9.78;3.77;;;;;;;19.91;65.66;100227.83;1731188;81;20989;-74
2022/07/24 01:34:54;;;;;;;3.67;3.02;;;;;;;19.86;65.63;100234.19;1697096;81;21080;-74
2022/07/24 01:37:25;;;;;;;4.25;2.90;;;;;;;19.84;65.71;100232.77;1733373;82;21501;-73
2022/07/24 01:39:55;;;;;;;4.45;3.10;;;;;;;19.81;65.59;100238.30;1729443;82;21475;-75
2022/07/24 01:42:26;;;;;;;3.60;2.83;;;;;;;19.79;65.52;100238.28;1711540;83;21459;-75
2022/07/24 01:44:57;;;;;;;4.30;2.92;;;;;;;19.79;65.46;100232.16;1712573;82;21066;-74
2022/07/24 01:47:28;;;;;;;4.25;3.08;;;;;;;19.79;65.37;100230.77;1713827;82;22216;-74
2022/07/24 01:49:59;;;;;;;6.33;2.90;;;;;;;19.76;65.45;100229.91;1736975;82;21054;-74
2022/07/24 01:52:29;;;;;;;5.10;2.98;;;;;;;19.75;65.60;100231.56;1744805;82;21061;-74
2022/07/24 01:55:00;;;;;;;3.22;2.90;;;;;;;19.73;65.72;100231.83;1726457;82;21475;-74
2022/07/24 01:57:33;;;;;;;6.42;3.27;;;;;;;19.72;65.84;100232.92;1710799;82;21040;-74
2022/07/24 02:00:05;;;;;;;4.30;3.17;;;;;;;19.70;65.93;100229.56;1735781;82;21030;-75
2022/07/24 02:02:38;;;;;;;5.22;3.20;;;;;;;19.70;65.91;100229.56;1730013;82;21035;-76
2022/07/24 02:05:09;;;;;;;9.33;5.47;;;;;;;19.69;65.82;100225.11;1731960;82;22345;-74
2022/07/24 02:07:42;;;;;;;5.20;3.40;;;;;;;19.67;65.96;100224.53;1740038;82;20967;-75
2022/07/24 02:10:13;;;;;;;4.20;3.40;;;;;;;19.67;66.01;100219.53;1733711;82;21122;-74
2022/07/24 02:12:43;;;;;;;9.75;3.70;;;;;;;19.65;66.02;100218.95;1724061;83;21066;-73
2022/07/24 02:15:17;;;;;;;9.78;3.22;;;;;;;19.62;65.93;100218.92;1722541;82;21114;-76
2022/07/24 02:17:50;;;;;;;5.67;3.10;;;;;;;19.59;65.98;100218.05;1716813;82;21068;-76
2022/07/24 02:20:20;;;;;;;4.12;2.80;;;;;;;19.58;66.03;100222.77;1730140;82;21150;-76
2022/07/24 02:22:52;;;;;;;4.95;3.40;;;;;;;19.57;65.98;100228.59;1730300;82;21023;-75
2022/07/24 02:25:22;;;;;;;5.10;3.17;;;;;;;19.55;66.22;100230.80;1730318;82;21071;-74
2022/07/24 02:27:53;;;;;;;11.45;6.37;;;;;;;19.53;66.35;100226.05;1731711;82;21482;-75
2022/07/24 02:30:24;;;;;;;4.65;3.40;;;;;;;19.57;66.45;100227.20;1695523;82;21011;-74
2022/07/24 02:32:54;;;;;;;5.22;3.50;;;;;;;19.57;66.63;100225.81;1712963;82;21032;-75
2022/07/24 02:35:24;;;;;;;6.53;3.70;;;;;;;19.55;66.70;100228.86;1716559;82;21063;-74
2022/07/24 02:37:54;;;;;;;7.08;3.40;;;;;;;19.57;66.64;100233.61;1715158;82;21513;-74
2022/07/24 02:40:24;;;;;;;3.92;2.90;;;;;;;19.58;66.65;100234.44;1737466;82;21079;-74
2022/07/24 02:42:54;;;;;;;3.83;3.00;;;;;;;19.59;66.40;100239.73;1698214;82;21049;-74
2022/07/24 02:45:24;;;;;;;4.08;2.90;;;;;;;19.61;66.21;100244.48;1728545;82;21095;-73
2022/07/24 02:47:56;;;;;;;5.42;3.10;;;;;;;19.60;66.12;100242.81;1718941;82;21466;-73
2022/07/24 02:50:31;;;;;;;5.15;2.87;;;;;;;19.62;66.16;100239.77;1710659;82;21022;-75
2022/07/24 02:53:01;;;;;;;4.55;2.72;;;;;;;19.64;66.46;100247.30;1730476;82;21035;-74
2022/07/24 02:55:33;;;;;;;6.12;2.67;;;;;;;19.65;66.25;100242.02;1706997;82;21035;-74
2022/07/24 02:58:03;;;;;;;4.00;2.83;;;;;;;19.66;66.09;100246.48;1731848;82;21441;-74
2022/07/24 03:00:34;;;;;;;4.08;2.75;;;;;;;19.65;66.26;100235.08;1711406;82;21036;-74
2022/07/24 03:03:04;;;;;;;6.47;2.98;;;;;;;19.65;66.42;100235.62;1725051;82;21071;-75
2022/07/24 03:05:34;;;;;;;6.10;3.05;;;;;;;19.66;66.48;100230.36;1710746;82;21062;-75
2022/07/24 03:08:04;;;;;;;5.12;3.20;;;;;;;19.69;66.58;100233.45;1736903;82;21006;-75
2022/07/24 03:10:35;;;;;;;8.48;2.80;;;;;;;19.75;66.49;100223.22;1721151;82;21088;-75
2022/07/24 03:13:05;;;;;;;6.12;3.05;;;;;;;19.81;66.47;100225.79;1721444;82;21059;-75
2022/07/24 03:15:36;;;;;;;6.35;2.72;;;;;;;19.88;66.20;100231.14;1724954;82;21161;-74
2022/07/24 03:18:07;;;;;;;4.05;2.55;;;;;;;19.94;65.42;100220.35;1741787;82;21027;-73
2022/07/24 03:20:42;;;;;;;3.52;2.70;;;;;;;20.02;65.59;100223.20;1737159;82;21023;-74
2022/07/24 03:23:13;;;;;;;6.10;2.80;;;;;;;20.08;65.54;100219.36;1719130;82;21072;-75
2022/07/24 03:25:46;;;;;;;4.35;2.58;;;;;;;20.13;65.45;100214.68;1688381;82;21004;-75
2022/07/24 03:28:16;;;;;;;5.35;2.60;;;;;;;20.17;65.47;100213.63;1721013;82;20978;-77
2022/07/24 03:30:47;;;;;;;10.03;3.27;;;;;;;20.22;65.29;100215.06;1716480;81;21456;-76
2022/07/24 03:33:17;;;;;;;5.50;2.70;;;;;;;20.31;65.12;100211.23;1709222;83;21521;-76
2022/07/24 03:35:48;;;;;;;4.75;2.65;;;;;;;20.36;65.00;100209.33;1715845;82;21015;-75
2022/07/24 03:38:19;;;;;;;4.42;2.70;;;;;;;20.40;65.10;100205.49;1723321;82;21031;-75
2022/07/24 03:40:51;;;;;;;4.40;3.17;;;;;;;20.43;65.08;100207.19;1674420;85;21020;-76
2022/07/24 03:43:23;;;;;;;4.92;2.62;;;;;;;20.48;64.96;100206.38;1641715;87;21103;-76
2022/07/24 03:45:54;;;;;;;3.70;2.70;;;;;;;20.54;65.01;100214.50;1683548;84;21011;-74
2022/07/24 03:48:25;;;;;;;3.08;2.70;;;;;;;20.58;64.94;100214.25;1686570;84;21279;-75
2022/07/24 03:50:55;;;;;;;5.58;2.95;;;;;;;20.65;64.55;100215.95;1664649;85;21493;-74
2022/07/24 03:53:26;;;;;;;6.87;3.27;;;;;;;20.70;64.54;100216.83;1679400;84;21035;-74
2022/07/24 03:55:58;;;;;;;5.37;3.25;;;;;;;20.79;64.54;100218.00;1659802;85;21085;-77
2022/07/24 03:58:28;;;;;;;8.40;4.00;;;;;;;20.88;64.66;100221.14;1682908;85;21077;-75
2022/07/24 04:00:57;;;;;;;4.08;3.12;;;;;;;20.95;64.59;100218.95;1687740;82;21526;-76
2022/07/24 04:03:28;;;;;;;4.35;3.40;;;;;;;21.00;64.73;100222.31;1733943;82;21071;-75
2022/07/24 04:06:00;;;;;;;7.10;3.35;;;;;;;21.03;64.86;100215.65;1711749;81;21031;-75
2022/07/24 04:08:30;;;;;;;7.35;3.52;;;;;;;21.07;64.97;100219.57;1734174;82;21469;-74
2022/07/24 04:11:02;;;;;;;12.05;3.72;;;;;;;21.10;64.98;100218.19;1711330;82;21100;-76
2022/07/24 04:13:33;;;;;;;11.88;4.55;;;;;;;21.13;64.78;100212.07;1705708;82;21508;-74
2022/07/24 04:16:06;;;;;;;6.12;3.40;;;;;;;21.15;64.55;100209.30;1721104;81;21038;-71
2022/07/24 04:18:36;;;;;;;5.33;3.08;;;;;;;21.19;64.46;100204.85;1716621;82;21068;-76
2022/07/24 04:21:05;;;;;;;6.12;2.90;;;;;;;21.25;64.17;100214.10;1711070;81;21079;-75
2022/07/24 04:23:37;;;;;;;7.55;3.10;;;;;;;21.28;64.00;100213.56;1716501;82;21038;-75
2022/07/24 04:26:07;;;;;;;5.20;2.80;;;;;;;21.34;63.70;100215.25;1716912;81;21032;-74
2022/07/24 04:28:36;;;;;;;6.53;2.70;;;;;;;21.44;63.32;100212.50;1728588;82;21059;-76
2022/07/24 04:31:06;;;;;;;3.12;2.58;;;;;;;21.53;62.85;100217.02;1692579;82;21025;-73
2022/07/24 04:33:36;;;;;;;5.97;2.50;;;;;;;21.61;61.71;100205.88;1721479;82;21035;-72
2022/07/24 04:36:06;;;;;;;4.03;2.77;;;;;;;21.73;60.61;100202.28;1734171;81;21067;-75
2022/07/24 04:38:40;;;;;;;7.00;2.58;;;;;;;21.88;60.12;100192.53;1722348;82;21003;-76
2022/07/24 04:41:12;;;;;;;4.62;2.72;;;;;;;22.02;59.56;100188.64;1745140;81;21030;-74
2022/07/24 04:43:42;;;;;;;5.80;2.62;;;;;;;22.13;59.43;100175.03;1729214;82;21506;-74
2022/07/24 04:46:12;;;;;;;4.87;2.52;;;;;;;22.24;58.99;100171.11;1723540;81;21032;-75
2022/07/24 04:48:42;;;;;;;5.03;2.60;;;;;;;22.33;58.65;100175.02;1728434;82;21075;-74
2022/07/24 04:51:13;;;;;;;4.53;2.67;;;;;;;22.42;58.58;100176.11;1715379;81;21067;-74
2022/07/24 04:53:43;;;;;;;3.47;2.65;;;;;;;22.51;58.42;100174.98;1727856;82;21497;-73
2022/07/24 04:56:15;;;;;;;5.95;2.80;;;;;;;22.59;58.36;100176.36;1710540;82;21032;-76
2022/07/24 04:58:46;;;;;;;5.80;3.08;;;;;;;22.67;58.44;100179.97;1727728;82;21058;-75
2022/07/24 05:01:18;;;;;;;4.83;3.08;;;;;;;22.75;58.73;100171.02;1706310;81;21494;-74
2022/07/24 05:03:47;;;;;;;7.03;3.50;;;;;;;22.83;58.60;100171.05;1707887;82;21482;-74
2022/07/24 05:06:17;;;;;;;6.08;2.85;;;;;;;22.93;58.30;100173.25;1733939;82;21058;-75
2022/07/24 05:08:50;;;;;;;4.92;2.70;;;;;;;23.07;57.83;100171.52;1714373;82;21603;-76
2022/07/24 05:11:21;;;;;;;6.72;2.92;;;;;;;23.30;57.10;100169.17;1710938;82;21433;-75
2022/07/24 05:13:53;;;;;;;3.60;2.85;;;;;;;23.57;56.35;100166.84;1706540;82;20991;-76
2022/07/24 05:16:23;;;;;;;8.43;3.22;;;;;;;23.89;55.67;100162.70;1703393;82;21110;-77
2022/07/24 05:18:53;;;;;;;7.35;2.60;;;;;;;24.22;54.91;100159.64;1707882;82;21074;-75
2022/07/24 05:21:24;;;;;;;5.97;2.60;;;;;;;24.55;53.88;100155.98;1703349;83;21076;-76
2022/07/24 05:24:01;;;;;;;3.58;2.27;;;;;;;24.93;52.54;100159.78;1705097;82;21447;-76
2022/07/24 05:26:31;;;;;;;7.17;2.30;;;;;;;25.28;51.42;100161.32;1721830;81;21062;-77
2022/07/24 05:29:02;;;;;;;3.90;2.12;;;;;;;25.64;50.19;100157.20;1731545;82;20980;-74
2022/07/24 05:31:34;;;;;;;3.87;2.08;;;;;;;26.04;49.30;100146.78;1724872;82;21026;-79
2022/07/24 05:34:06;;;;;;;5.03;2.15;;;;;;;26.36;48.59;100141.75;1711743;82;21332;-75
2022/07/24 05:36:37;;;;;;;3.00;2.05;;;;;;;26.64;47.78;100140.38;1706390;82;21002;-76
2022/07/24 05:39:08;;;;;;;2.98;2.05;;;;;;;26.87;46.94;100134.33;1734024;82;21038;-77
2022/07/24 05:41:39;;;;;;;4.60;2.00;;;;;;;27.10;46.42;100139.77;1684431;84;21067;-75
2022/07/24 05:44:09;;;;;;;4.83;2.00;;;;;;;27.35;45.59;100141.22;1672263;85;21043;-76
2022/07/24 05:46:41;;;;;;;3.70;1.85;;;;;;;27.56;45.12;100148.62;1691953;83;21517;-77
2022/07/24 05:49:11;;;;;;;3.20;2.05;;;;;;;27.74;44.40;100151.88;1686158;85;21083;-75
2022/07/24 05:51:43;;;;;;;5.00;2.17;;;;;;;27.98;43.99;100150.77;1683721;85;21017;-76
2022/07/24 05:54:13;;;;;;;2.72;1.90;;;;;;;28.21;43.44;100150.18;1689473;85;21075;-77
2022/07/24 05:56:45;;;;;;;3.35;2.02;;;;;;;28.40;42.39;100152.24;1684845;85;21043;-77
2022/07/24 05:59:16;;;;;;;4.40;2.08;;;;;;;28.51;42.34;100148.56;1682469;85;21521;-77
2022/07/24 06:01:46;;;;;;;2.67;2.00;;;;;;;28.64;42.09;100157.54;1660060;85;21101;-76
2022/07/24 06:04:17;;;;;;;6.03;2.27;;;;;;;28.82;41.93;100157.88;1672530;85;21046;-75
2022/07/24 06:06:49;;;;;;;5.10;2.40;;;;;;;28.98;41.37;100156.89;1674073;85;21014;-77
2022/07/24 06:09:18;;;;;;;3.75;2.10;;;;;;;29.18;40.64;100156.28;1664867;85;21058;-75
2022/07/24 06:11:48;;;;;;;4.47;2.17;;;;;;;29.28;40.70;100153.77;1690638;85;21475;-76
2022/07/24 06:14:18;;;;;;;3.95;1.87;;;;;;;29.46;40.21;100151.83;1691700;83;21067;-76
2022/07/24 06:16:50;;;;;;;3.87;1.87;;;;;;;29.63;39.46;100158.91;1668419;84;21573;-74
2022/07/24 06:19:21;;;;;;;2.50;1.82;;;;;;;29.59;39.33;100157.91;1695673;84;21058;-76
2022/07/24 06:21:51;;;;;;;4.17;1.82;;;;;;;29.62;39.74;100159.49;1674002;84;21059;-77
2022/07/24 06:24:20;;;;;;;4.58;2.17;;;;;;;29.76;39.28;100159.92;1671519;84;21020;-72
2022/07/24 06:26:52;;;;;;;3.00;1.92;;;;;;;29.87;38.97;100153.60;1714330;82;21083;-77
2022/07/24 06:29:24;;;;;;;6.15;2.02;;;;;;;30.03;38.81;100162.47;1695566;82;21028;-77
2022/07/24 06:31:55;;;;;;;5.62;1.82;;;;;;;30.19;38.01;100159.95;1715619;83;21051;-76
2022/07/24 06:34:25;;;;;;;4.97;1.85;;;;;;;30.27;37.71;100152.04;1714790;83;21064;-77
2022/07/24 06:36:55;;;;;;;7.00;4.95;;;;;;;30.45;36.91;100155.08;1708382;84;21067;-77
2022/07/24 06:39:24;;;;;;;7.47;5.10;;;;;;;30.53;36.70;100156.22;1710167;82;21055;-74
2022/07/24 06:41:55;;;;;;;3.40;2.00;;;;;;;30.52;36.74;100148.90;1705951;82;21464;-76
2022/07/24 06:44:30;;;;;;;2.22;1.80;;;;;;;30.58;36.35;100146.16;1715595;82;20998;-77
2022/07/24 06:47:01;;;;;;;4.30;1.70;;;;;;;30.71;36.30;100142.91;1716664;82;21475;-77
2022/07/24 06:49:30;;;;;;;3.52;1.70;;;;;;;30.80;35.75;100138.87;1745913;81;21422;-76
2022/07/24 06:52:01;;;;;;;3.60;1.70;;;;;;;30.88;35.91;100135.17;1698523;82;21475;-75
2022/07/24 06:54:31;;;;;;;5.03;1.82;;;;;;;31.01;35.67;100134.69;1724890;82;20982;-75
2022/07/24 06:57:02;;;;;;;2.55;1.70;;;;;;;31.14;35.46;100135.03;1712021;82;21014;-77
2022/07/24 06:59:32;;;;;;;3.27;1.70;;;;;;;31.36;35.24;100131.72;1724593;81;21484;-77
2022/07/24 07:02:05;;;;;;;3.67;1.75;;;;;;;31.61;34.62;100131.28;1722247;82;21039;-77
2022/07/24 07:04:36;;;;;;;4.28;1.60;;;;;;;31.74;34.04;100125.37;1657276;85;21053;-76
2022/07/24 07:07:13;;;;;;;2.45;1.70;;;;;;;31.85;33.92;100130.86;1656684;85;21125;-77
2022/07/24 07:09:45;;;;;;;4.37;2.00;;;;;;;32.00;33.17;100118.66;1603125;88;21484;-79
2022/07/24 07:12:16;;;;;;;6.58;2.00;;;;;;;32.07;33.19;100108.42;1592812;88;21175;-75
2022/07/24 07:14:47;;;;;;;4.03;1.80;;;;;;;32.22;33.05;100109.77;1608277;88;21044;-77
2022/07/24 07:17:17;;;;;;;2.35;1.72;;;;;;;32.30;32.88;100096.70;1611715;87;21534;-77
2022/07/24 07:19:48;;;;;;;6.42;2.12;;;;;;;32.40;32.44;100107.00;1606372;89;21086;-77
2022/07/24 07:22:18;;;;;;;4.20;1.60;;;;;;;32.46;32.27;100097.09;1636786;84;21525;-80
2022/07/24 07:24:55;;;;;;;5.33;1.75;;;;;;;32.57;32.46;100088.15;1681350;84;21059;-77
2022/07/24 07:27:26;;;;;;;5.72;1.90;;;;;;;32.71;31.08;100090.05;1691204;83;21063;-78
2022/07/24 07:29:56;;;;;;;1.77;1.67;;;;;;;32.72;31.26;100087.45;1710813;82;21071;-78
2022/07/24 07:32:26;;;;;;;3.70;1.70;;;;;;;32.79;31.28;100086.30;1727404;82;21002;-77
2022/07/24 07:34:56;;;;;;;2.10;1.70;;;;;;;32.80;31.19;100094.22;1741285;82;21059;-78
2022/07/24 07:37:29;;;;;;;5.45;1.80;;;;;;;32.89;30.67;100090.09;1731148;83;21090;-76
2022/07/24 07:40:00;;;;;;;3.55;1.70;;;;;;;32.96;30.87;100086.06;1718234;83;21030;-77
2022/07/24 07:42:31;;;;;;;1.75;1.57;;;;;;;33.09;30.75;100086.28;1710974;82;21051;-78
2022/07/24 07:45:01;;;;;;;3.20;1.40;;;;;;;33.18;30.34;100092.45;1722866;82;21036;-76
2022/07/24 07:47:31;;;;;;;2.42;1.60;;;;;;;33.14;29.56;100084.39;1712199;82;21027;-78
2022/07/24 07:50:02;;;;;;;2.58;1.65;;;;;;;33.06;29.86;100078.48;1721855;82;21003;-77
2022/07/24 07:52:32;;;;;;;3.75;1.85;;;;;;;33.16;29.45;100074.92;1731569;82;21094;-77
2022/07/24 07:55:02;;;;;;;2.10;1.50;;;;;;;33.26;29.30;100080.97;1744788;82;21001;-77
2022/07/24 07:57:32;;;;;;;3.87;1.40;;;;;;;33.38;29.23;100080.97;1740506;82;21046;-77
2022/07/24 08:00:06;;;;;;;2.35;1.42;;;;;;;33.52;29.09;100079.75;1724703;82;21006;-76
2022/07/24 08:02:38;;;;;;;2.60;1.52;;;;;;;33.66;28.82;100079.59;1744200;82;21010;-77
2022/07/24 08:05:09;;;;;;;3.77;1.67;;;;;;;33.75;28.99;100070.08;1735380;82;21010;-71
2022/07/24 08:07:41;;;;;;;4.00;1.50;;;;;;;33.89;29.01;100077.06;1683520;85;21009;-74
2022/07/24 08:10:13;;;;;;;3.25;1.57;;;;;;;34.13;27.98;100072.44;1684577;84;21088;-73
2022/07/24 08:12:43;;;;;;;7.17;2.45;;;;;;;34.28;27.62;100073.06;1676313;85;21115;-75
2022/07/24 08:15:12;;;;;;;2.83;2.40;;;;;;;34.41;26.45;100062.46;1685050;84;21103;-70
2022/07/24 08:17:41;;;;;;;5.97;2.08;;;;;;;34.45;26.61;100060.53;1681188;84;21155;-75
2022/07/24 08:20:12;;;;;;;3.30;1.85;;;;;;;34.45;26.81;100062.78;1676264;84;21083;-78
2022/07/24 08:22:42;;;;;;;1.70;1.60;;;;;;;34.43;26.74;100060.91;1660522;85;21029;-68
2022/07/24 08:25:12;;;;;;;2.22;1.80;;;;;;;34.51;26.29;100058.50;1694650;82;21038;-66
2022/07/24 08:27:44;;;;;;;4.70;1.70;;;;;;;34.62;25.93;100054.50;1732927;81;21471;-68
2022/07/24 08:30:14;;;;;;;2.17;1.80;;;;;;;34.69;26.39;100051.84;1741172;80;21031;-67
2022/07/24 08:32:45;;;;;;;5.28;2.02;;;;;;;34.69;26.67;100054.69;1739354;81;21085;-67
2022/07/24 08:35:16;;;;;;;3.37;2.00;;;;;;;34.86;26.80;100054.33;1739692;81;21032;-67
2022/07/24 08:37:46;;;;;;;3.37;1.70;;;;;;;34.98;26.50;100051.14;1732199;82;21002;-68
2022/07/24 08:40:16;;;;;;;6.50;1.70;;;;;;;34.90;26.45;100054.41;1749821;82;21081;-72
2022/07/24 08:42:47;;;;;;;3.90;1.90;;;;;;;34.87;26.33;100047.44;1723587;82;21408;-70
2022/07/24 08:45:16;;;;;;;5.53;3.45;;;;;;;34.69;26.67;100049.59;1693554;84;21063;-69
2022/07/24 08:47:46;;;;;;;4.72;2.45;;;;;;;34.55;26.70;100048.03;1690213;85;21027;-67
2022/07/24 08:50:15;;;;;;;5.72;2.17;;;;;;;34.54;26.79;100041.29;1658979;85;21098;-72
2022/07/24 08:52:45;;;;;;;5.75;2.05;;;;;;;34.59;26.71;100043.26;1671057;85;21118;-68
2022/07/24 08:55:14;;;;;;;3.52;1.65;;;;;;;34.62;26.83;100043.12;1720599;83;21059;-69
2022/07/24 08:57:44;;;;;;;3.25;1.50;;;;;;;34.67;26.54;100035.72;1720969;82;21027;-72
2022/07/24 09:00:16;;;;;;;4.12;1.52;;;;;;;34.73;26.35;100042.79;1722723;82;21006;-75
2022/07/24 09:02:46;;;;;;;1.90;1.47;;;;;;;34.74;25.93;100037.33;1748329;81;21073;-73
2022/07/24 09:05:17;;;;;;;2.95;1.42;;;;;;;34.45;26.06;100033.50;1736343;82;21046;-69
2022/07/24 09:07:49;;;;;;;5.28;2.20;;;;;;;34.03;26.62;100035.41;1723835;82;21044;-78
2022/07/24 09:10:19;;;;;;;3.25;1.62;;;;;;;33.76;27.30;100037.03;1739760;82;21002;-69
2022/07/24 09:12:50;;;;;;;6.30;1.85;;;;;;;33.60;27.71;100039.83;1677141;84;21077;-70
2022/07/24 09:15:26;;;;;;;4.42;1.70;;;;;;;33.39;28.01;100044.88;1675099;84;21053;-68
2022/07/24 09:17:59;;;;;;;9.73;1.95;;;;;;;33.12;28.14;100038.48;1679874;85;21108;-68
2022/07/24 09:20:31;;;;;;;2.65;1.75;;;;;;;32.93;28.49;100034.85;1651556;85;21109;-69
2022/07/24 09:23:02;;;;;;;2.33;1.70;;;;;;;32.81;28.72;100034.87;1676122;85;21395;-67
2022/07/24 09:25:37;;;;;;;4.22;1.70;;;;;;;32.77;28.82;100031.31;1664033;85;21097;-67
2022/07/24 09:28:08;;;;;;;3.42;1.90;;;;;;;32.78;28.80;100024.46;1685361;85;21100;-68
2022/07/24 09:30:51;;;;;;;4.00;2.00;;;;;;;32.75;29.03;100025.14;1655462;84;21027;-67
2022/07/24 09:33:24;;;;;;;3.72;2.20;;;;;;;32.73;29.12;100023.84;1673340;85;21256;-66
2022/07/24 09:35:55;;;;;;;2.47;2.00;;;;;;;32.57;29.53;100024.32;1731538;82;21058;-68
2022/07/24 09:38:29;;;;;;;3.70;1.80;;;;;;;32.57;29.59;100033.66;1720908;82;21023;-68
2022/07/24 09:41:02;;;;;;;3.72;2.10;;;;;;;32.55;29.29;100033.78;1725985;82;21075;-67
2022/07/24 09:43:35;;;;;;;5.58;1.80;;;;;;;32.37;29.48;100026.05;1699483;83;21076;-67
2022/07/24 09:46:12;;;;;;;3.33;1.72;;;;;;;32.26;29.62;100034.19;1702381;83;21036;-68
2022/07/24 09:48:54;;;;;;;2.17;1.77;;;;;;;32.07;29.75;100027.63;1707130;82;21519;-65
2022/07/24 09:51:28;;;;;;;5.87;2.00;;;;;;;31.93;30.24;100034.20;1707196;82;21119;-66
2022/07/24 09:54:00;;;;;;;2.98;2.08;;;;;;;31.81;30.72;100036.38;1697317;82;21028;-67
2022/07/24 09:56:31;;;;;;;3.25;2.02;;;;;;;31.65;30.94;100041.59;1711562;82;21010;-67
2022/07/24 09:59:07;;;;;;;5.95;2.10;;;;;;;31.48;31.17;100031.25;1718350;82;21063;-67
2022/07/24 10:01:39;;;;;;;4.00;2.17;;;;;;;31.44;31.32;100033.95;1722320;82;21549;-67
2022/07/24 10:04:11;;;;;;;3.10;2.25;;;;;;;31.42;31.56;100036.30;1715052;82;21028;-69
2022/07/24 10:06:42;;;;;;;5.28;1.95;;;;;;;31.40;31.45;100030.74;1711745;82;20990;-68
2022/07/24 10:09:14;;;;;;;3.67;1.90;;;;;;;31.40;31.61;100033.58;1741511;82;21054;-69
2022/07/24 10:11:45;;;;;;;7.17;3.62;;;;;;;31.36;31.32;100032.02;1715179;83;20991;-70
2022/07/24 10:14:17;;;;;;;4.12;2.75;;;;;;;31.31;31.59;100024.33;1717314;82;21529;-67
2022/07/24 10:16:49;;;;;;;4.97;2.72;;;;;;;31.25;31.62;100028.53;1724359;82;21030;-70
2022/07/24 10:19:23;;;;;;;4.97;2.20;;;;;;;31.24;31.73;100026.87;1664981;85;21091;-67
2022/07/24 10:21:59;;;;;;;5.33;2.15;;;;;;;31.14;31.69;100027.47;1690582;85;21452;-68
2022/07/24 10:24:38;;;;;;;6.12;2.33;;;;;;;31.02;31.98;100033.05;1680019;84;21455;-69
2022/07/24 10:27:11;;;;;;;3.27;1.62;;;;;;;30.95;32.03;100031.36;1679971;85;21066;-69
2022/07/24 10:29:43;;;;;;;3.27;1.70;;;;;;;30.82;32.04;100032.44;1680355;85;21528;-68
2022/07/24 10:32:14;;;;;;;4.83;2.00;;;;;;;30.75;31.99;100034.39;1680511;84;21032;-67
2022/07/24 10:35:04;;;;;;;3.70;2.00;;;;;;;30.71;32.32;100026.93;1679913;84;21055;-67
2022/07/24 10:38:11;;;;;;;3.87;1.70;;;;;;;30.59;32.50;100022.00;1669220;85;21221;-66
2022/07/24 10:40:51;;;;;;;6.97;1.80;;;;;;;30.48;32.52;100022.08;1669609;84;21032;-67
2022/07/24 10:43:23;;;;;;;6.70;1.98;;;;;;;30.42;32.79;100020.03;1675172;83;21089;-72
2022/07/24 10:46:00;;;;;;;5.53;2.20;;;;;;;30.34;32.93;100016.66;1692546;83;21080;-70
2022/07/24 10:48:35;;;;;;;7.47;2.05;;;;;;;30.31;33.07;100017.92;1681585;83;21977;-70
2022/07/24 10:51:13;;;;;;;6.35;2.42;;;;;;;30.28;33.39;100008.95;1693064;83;21105;-69
2022/07/24 10:53:54;;;;;;;5.78;2.15;;;;;;;30.24;33.47;100011.38;1697164;83;20990;-68
2022/07/24 10:56:31;;;;;;;5.30;1.82;;;;;;;30.18;33.68;100005.67;1682431;83;21060;-68
2022/07/24 10:59:09;;;;;;;3.22;1.80;;;;;;;30.17;34.11;100005.42;1624747;87;21095;-68
2022/07/24 11:01:44;;;;;;;2.45;1.90;;;;;;;30.17;34.33;100004.01;1621587;88;21202;-69
2022/07/24 11:04:30;;;;;;;5.70;1.87;;;;;;;30.16;34.25;100005.18;1617688;88;21530;-68
2022/07/24 11:10:00;;;;;;;7.00;2.55;;;;;;;30.17;34.16;99998.36;1808679;77;27938;-61
2022/07/24 11:12:33;;;;;;;3.37;1.92;;;;;;;30.17;34.26;100004.84;1761277;80;21563;-62
2022/07/24 11:17:50;;;;;;;3.12;1.80;;;;;;;30.17;33.98;99997.78;1712515;80;21550;-64
2022/07/24 11:20:22;;;;;;;6.17;1.92;;;;;;;30.18;33.78;99997.19;1772033;79;21178;-64
2022/07/24 11:22:55;;;;;;;6.60;1.90;;;;;;;30.21;33.60;99997.92;1769500;80;21119;-62
2022/07/24 11:25:30;;;;;;;3.05;1.90;;;;;;;30.21;33.67;99986.03;1747598;80;21138;-62
2022/07/24 11:28:12;;;;;;;4.90;2.45;;;;;;;30.30;33.77;99993.06;1756547;80;21610;-62
2022/07/24 11:30:45;;;;;;;4.60;2.20;;;;;;;30.35;33.99;99989.22;1767765;80;21142;-63
2022/07/24 11:33:21;;;;;;;4.45;2.25;;;;;;;30.39;33.62;99975.47;1777161;80;21162;-61
2022/07/24 11:35:52;;;;;;;3.05;2.45;;;;;;;30.33;33.94;99975.42;1691446;83;21335;-62
2022/07/24 11:38:29;;;;;;;3.95;2.58;;;;;;;30.32;34.35;99966.70;1702164;83;21161;-62
2022/07/24 11:41:08;;;;;;;7.08;2.67;;;;;;;30.34;34.70;99969.19;1686899;83;21325;-63
2022/07/24 11:43:53;;;;;;;5.15;2.85;;;;;;;30.34;34.93;99972.84;1713203;82;21183;-65
2022/07/24 11:46:36;;;;;;;4.47;3.02;;;;;;;30.31;35.24;99962.80;1712218;83;21099;-64
2022/07/24 11:49:10;;;;;;;6.72;3.40;;;;;;;30.19;35.93;99970.58;1729134;82;21233;-63
2022/07/24 11:51:49;;;;;;;4.97;3.30;;;;;;;30.12;36.93;99973.11;1738380;82;21830;-62
2022/07/24 11:54:25;;;;;;;6.87;4.28;;;;;;;30.08;37.63;99966.48;1729750;82;21277;-63